GLD1794 SBPK-SBBG
Flight info
| Callsign | GLD1794 |
|---|---|
| Flight time | N/A |
| Altitude | 20000 |
| Route | BG008 DCT BG007 |
| Aircraft | A319/M-SDE3FGHIRWY/LB1 |
Departure
| Time | N/A |
|---|---|
| Airport | João Simões Lopes Neto International Airport (SBPK) |
Arrival
| Time | 2026-05-07 09:43 |
|---|---|
| Airport | Comandante Gustavo Kraemer Airport (SBBG) |
| Time | Latitude | Longitude | Altitude | Speed | Heading |
|---|---|---|---|---|---|
| 2026-05-07 09:23 | -31.63860 | -52.99706 | 19762 ft | 355 kts | 276° |
| 2026-05-07 09:23 | -31.63711 | -53.02596 | 19772 ft | 355 kts | 276° |
| 2026-05-07 09:23 | -31.63562 | -53.05491 | 19770 ft | 354 kts | 276° |
| 2026-05-07 09:23 | -31.63410 | -53.08371 | 19771 ft | 353 kts | 276° |
| 2026-05-07 09:24 | -31.63256 | -53.11247 | 19767 ft | 353 kts | 276° |
| 2026-05-07 09:24 | -31.63103 | -53.14122 | 19765 ft | 353 kts | 276° |
| 2026-05-07 09:24 | -31.62951 | -53.16995 | 19757 ft | 353 kts | 276° |
| 2026-05-07 09:24 | -31.62798 | -53.19875 | 19756 ft | 353 kts | 276° |
| 2026-05-07 09:25 | -31.62645 | -53.22750 | 19755 ft | 353 kts | 276° |
| 2026-05-07 09:25 | -31.62489 | -53.25620 | 19736 ft | 353 kts | 277° |
| 2026-05-07 09:25 | -31.62335 | -53.28479 | 19498 ft | 349 kts | 277° |
| 2026-05-07 09:25 | -31.62180 | -53.31321 | 19269 ft | 348 kts | 277° |
| 2026-05-07 09:26 | -31.62024 | -53.34145 | 19034 ft | 346 kts | 277° |
| 2026-05-07 09:26 | -31.61871 | -53.36932 | 18600 ft | 339 kts | 277° |
| 2026-05-07 09:26 | -31.61722 | -53.39678 | 18085 ft | 335 kts | 277° |
| 2026-05-07 09:26 | -31.61574 | -53.42390 | 17486 ft | 331 kts | 277° |
| 2026-05-07 09:27 | -31.61429 | -53.45061 | 16973 ft | 325 kts | 277° |
| 2026-05-07 09:27 | -31.61284 | -53.47695 | 16464 ft | 321 kts | 277° |
| 2026-05-07 09:27 | -31.60994 | -53.52865 | 15467 ft | 315 kts | 277° |
| 2026-05-07 09:28 | -31.60849 | -53.55417 | 14956 ft | 312 kts | 277° |
| 2026-05-07 09:28 | -31.60708 | -53.57920 | 14470 ft | 310 kts | 277° |
| 2026-05-07 09:28 | -31.60564 | -53.60472 | 13969 ft | 309 kts | 277° |
| 2026-05-07 09:28 | -31.60422 | -53.62948 | 13475 ft | 307 kts | 277° |
| 2026-05-07 09:29 | -31.60279 | -53.65436 | 12936 ft | 305 kts | 277° |
| 2026-05-07 09:29 | -31.60137 | -53.67901 | 12431 ft | 301 kts | 277° |
| 2026-05-07 09:29 | -31.59996 | -53.70341 | 11925 ft | 298 kts | 278° |
| 2026-05-07 09:29 | -31.59857 | -53.72750 | 11420 ft | 295 kts | 278° |
| 2026-05-07 09:30 | -31.59718 | -53.75138 | 10913 ft | 292 kts | 278° |
| 2026-05-07 09:30 | -31.59579 | -53.77497 | 10429 ft | 288 kts | 278° |
| 2026-05-07 09:30 | -31.59452 | -53.79744 | 10287 ft | 262 kts | 278° |
| 2026-05-07 09:30 | -31.59343 | -53.81782 | 10169 ft | 238 kts | 279° |
| 2026-05-07 09:31 | -31.59239 | -53.83667 | 9937 ft | 227 kts | 279° |
| 2026-05-07 09:31 | -31.59131 | -53.85497 | 9830 ft | 223 kts | 280° |
| 2026-05-07 09:31 | -31.59030 | -53.87247 | 9759 ft | 205 kts | 280° |
| 2026-05-07 09:31 | -31.58939 | -53.88861 | 9504 ft | 193 kts | 281° |
| 2026-05-07 09:32 | -31.58844 | -53.90416 | 9380 ft | 191 kts | 281° |
| 2026-05-07 09:32 | -31.58748 | -53.91955 | 9166 ft | 192 kts | 281° |
| 2026-05-07 09:32 | -31.58653 | -53.93510 | 8906 ft | 191 kts | 281° |
| 2026-05-07 09:32 | -31.58559 | -53.95061 | 8624 ft | 190 kts | 281° |
| 2026-05-07 09:33 | -31.58466 | -53.96603 | 8350 ft | 189 kts | 282° |
| 2026-05-07 09:33 | -31.58372 | -53.98139 | 8070 ft | 188 kts | 282° |
| 2026-05-07 09:33 | -31.58282 | -53.99660 | 7805 ft | 186 kts | 282° |
| 2026-05-07 09:33 | -31.58191 | -54.01172 | 7527 ft | 185 kts | 282° |
| 2026-05-07 09:34 | -31.58101 | -54.02676 | 7253 ft | 185 kts | 283° |
| 2026-05-07 09:34 | -31.58011 | -54.04174 | 6979 ft | 184 kts | 283° |
| 2026-05-07 09:34 | -31.57921 | -54.05665 | 6697 ft | 183 kts | 283° |
| 2026-05-07 09:34 | -31.57831 | -54.07157 | 6425 ft | 182 kts | 284° |
| 2026-05-07 09:35 | -31.57741 | -54.08630 | 6160 ft | 180 kts | 283° |
| 2026-05-07 09:35 | -31.57650 | -54.10090 | 5882 ft | 179 kts | 284° |
| 2026-05-07 09:35 | -31.57560 | -54.11523 | 5619 ft | 178 kts | 284° |
| 2026-05-07 09:35 | -31.57472 | -54.12966 | 5350 ft | 177 kts | 284° |
| 2026-05-07 09:36 | -31.57387 | -54.14399 | 5087 ft | 176 kts | 284° |
| 2026-05-07 09:36 | -31.57301 | -54.15825 | 4823 ft | 174 kts | 285° |
| 2026-05-07 09:36 | -31.57184 | -54.17230 | 4568 ft | 171 kts | 290° |
| 2026-05-07 09:36 | -31.56857 | -54.18547 | 4313 ft | 166 kts | 300° |
| 2026-05-07 09:37 | -31.56332 | -54.19725 | 4174 ft | 162 kts | 308° |
| 2026-05-07 09:37 | -31.55629 | -54.20762 | 4016 ft | 161 kts | 317° |
| 2026-05-07 09:37 | -31.54816 | -54.21664 | 3800 ft | 161 kts | 319° |
| 2026-05-07 09:37 | -31.54006 | -54.22562 | 3560 ft | 160 kts | 319° |
| 2026-05-07 09:38 | -31.53200 | -54.23459 | 3315 ft | 160 kts | 319° |
| 2026-05-07 09:38 | -31.52394 | -54.24355 | 3061 ft | 159 kts | 321° |
| 2026-05-07 09:38 | -31.51419 | -54.24923 | 2799 ft | 161 kts | 345° |
| 2026-05-07 09:38 | -31.50291 | -54.24711 | 2641 ft | 174 kts | 14° |
| 2026-05-07 09:39 | -31.49330 | -54.23730 | 2587 ft | 185 kts | 33° |
| 2026-05-07 09:39 | -31.48481 | -54.22670 | 2505 ft | 176 kts | 33° |
| 2026-05-07 09:39 | -31.47661 | -54.21657 | 2478 ft | 164 kts | 33° |
| 2026-05-07 09:39 | -31.46909 | -54.20726 | 2386 ft | 149 kts | 31° |
| 2026-05-07 09:40 | -31.46252 | -54.19908 | 2322 ft | 128 kts | 30° |
| 2026-05-07 09:40 | -31.45674 | -54.19194 | 2278 ft | 117 kts | 28° |
| 2026-05-07 09:40 | -31.45118 | -54.18525 | 2219 ft | 114 kts | 28° |
| 2026-05-07 09:40 | -31.44573 | -54.17869 | 2044 ft | 113 kts | 27° |
| 2026-05-07 09:41 | -31.44007 | -54.17197 | 1828 ft | 117 kts | 32° |
| 2026-05-07 09:41 | -31.43467 | -54.16480 | 1650 ft | 117 kts | 35° |
| 2026-05-07 09:41 | -31.42923 | -54.15787 | 1496 ft | 115 kts | 32° |
| 2026-05-07 09:41 | -31.42343 | -54.15158 | 1355 ft | 113 kts | 30° |
| 2026-05-07 09:42 | -31.41769 | -54.14507 | 1246 ft | 117 kts | 40° |
| 2026-05-07 09:42 | -31.41202 | -54.13811 | 1077 ft | 118 kts | 40° |
| 2026-05-07 09:42 | -31.40624 | -54.13128 | 943 ft | 117 kts | 39° |
| 2026-05-07 09:42 | -31.40072 | -54.12448 | 747 ft | 117 kts | 41° |
| 2026-05-07 09:43 | -31.39508 | -54.11765 | 609 ft | 113 kts | 40° |
| 2026-05-07 09:43 | -31.39039 | -54.11199 | 594 ft | 77 kts | 46° |
| 2026-05-07 09:43 | -31.38751 | -54.10851 | 593 ft | 48 kts | 46° |
| 2026-05-07 09:43 | -31.38634 | -54.10708 | 607 ft | 13 kts | 46° |
| 2026-05-07 09:44 | -31.38600 | -54.10659 | 599 ft | 2 kts | 298° |
| 2026-05-07 09:44 | -31.38620 | -54.10691 | 603 ft | 8 kts | 227° |
| 2026-05-07 09:44 | -31.38672 | -54.10756 | 594 ft | 13 kts | 226° |
| 2026-05-07 09:44 | -31.38743 | -54.10844 | 593 ft | 16 kts | 227° |
| 2026-05-07 09:45 | -31.38825 | -54.10941 | 593 ft | 14 kts | 225° |
| 2026-05-07 09:45 | -31.38896 | -54.11027 | 593 ft | 13 kts | 225° |
| 2026-05-07 09:45 | -31.38895 | -54.11111 | 594 ft | 9 kts | 314° |
| 2026-05-07 09:45 | -31.38856 | -54.11170 | 594 ft | 7 kts | 265° |
| 2026-05-07 09:46 | -31.38860 | -54.11174 | 594 ft | 1 kts | 225° |
| 2026-05-07 09:46 | -31.38861 | -54.11174 | 594 ft | 0 kts | 226° |